sensor_id;sensor_type;location;lat;lon;timestamp;pressure;altitude;pressure_sealevel;temperature;humidity
62237;BME280;69163;48.778;2.308;2023-04-26T00:02:11;101054.43;;;17.30;29.55
62237;BME280;69163;48.778;2.308;2023-04-26T00:04:37;101055.37;;;17.61;29.48
62237;BME280;69163;48.778;2.308;2023-04-26T00:07:02;101056.77;;;17.57;29.51
62237;BME280;69163;48.778;2.308;2023-04-26T00:09:28;101058.03;;;17.59;29.49
62237;BME280;69163;48.778;2.308;2023-04-26T00:11:53;101054.46;;;17.57;29.52
62237;BME280;69163;48.778;2.308;2023-04-26T00:14:18;101048.89;;;17.86;29.46
62237;BME280;69163;48.778;2.308;2023-04-26T00:16:44;101038.16;;;18.11;29.46
62237;BME280;69163;48.778;2.308;2023-04-26T00:19:08;101034.34;;;17.61;29.47
62237;BME280;69163;48.778;2.308;2023-04-26T00:21:34;101032.20;;;17.56;29.50
62237;BME280;69163;48.778;2.308;2023-04-26T00:23:59;101031.59;;;17.61;29.46
62237;BME280;69163;48.778;2.308;2023-04-26T00:26:24;101030.19;;;17.62;29.42
62237;BME280;69163;48.778;2.308;2023-04-26T00:28:50;101028.28;;;17.59;29.45
62237;BME280;69163;48.778;2.308;2023-04-26T00:31:16;101021.79;;;17.37;29.43
62237;BME280;69163;48.778;2.308;2023-04-26T00:33:41;101021.80;;;18.09;29.43
62237;BME280;69163;48.778;2.308;2023-04-26T00:36:07;101022.68;;;17.82;29.47
62237;BME280;69163;48.778;2.308;2023-04-26T00:38:32;101022.05;;;17.32;29.49
62237;BME280;69163;48.778;2.308;2023-04-26T00:40:56;101016.50;;;17.56;29.49
62237;BME280;69163;48.778;2.308;2023-04-26T00:43:21;101008.49;;;17.36;29.44
62237;BME280;69163;48.778;2.308;2023-04-26T00:45:47;101007.78;;;17.33;29.47
62237;BME280;69163;48.778;2.308;2023-04-26T00:48:12;101010.81;;;17.31;29.50
62237;BME280;69163;48.778;2.308;2023-04-26T00:50:38;101005.50;;;17.52;29.53
62237;BME280;69163;48.778;2.308;2023-04-26T00:53:03;101004.16;;;17.55;29.49
62237;BME280;69163;48.778;2.308;2023-04-26T00:55:28;101002.74;;;17.52;29.50
62237;BME280;69163;48.778;2.308;2023-04-26T00:57:54;101000.86;;;17.65;29.61
62237;BME280;69163;48.778;2.308;2023-04-26T01:00:19;100992.58;;;17.74;29.51
62237;BME280;69163;48.778;2.308;2023-04-26T01:02:43;100993.53;;;17.50;29.50
62237;BME280;69163;48.778;2.308;2023-04-26T01:05:09;100995.34;;;17.20;29.58
62237;BME280;69163;48.778;2.308;2023-04-26T01:07:35;100987.21;;;17.51;29.52
62237;BME280;69163;48.778;2.308;2023-04-26T01:10:00;100979.93;;;17.51;29.49
62237;BME280;69163;48.778;2.308;2023-04-26T01:12:27;100987.82;;;17.50;29.50
62237;BME280;69163;48.778;2.308;2023-04-26T01:14:52;100992.83;;;17.52;29.50
62237;BME280;69163;48.778;2.308;2023-04-26T01:17:17;100992.91;;;17.51;29.50
62237;BME280;69163;48.778;2.308;2023-04-26T01:19:48;100990.47;;;17.45;29.56
62237;BME280;69163;48.778;2.308;2023-04-26T01:22:08;100987.08;;;17.61;29.39
62237;BME280;69163;48.778;2.308;2023-04-26T01:24:34;100986.30;;;17.60;29.39
62237;BME280;69163;48.778;2.308;2023-04-26T01:26:59;100976.83;;;17.62;29.34
62237;BME280;69163;48.778;2.308;2023-04-26T01:29:24;100971.27;;;17.55;29.40
62237;BME280;69163;48.778;2.308;2023-04-26T01:31:49;100969.01;;;17.51;29.46
62237;BME280;69163;48.778;2.308;2023-04-26T01:34:15;100963.82;;;17.60;29.35
62237;BME280;69163;48.778;2.308;2023-04-26T01:36:40;100966.77;;;18.05;29.38
62237;BME280;69163;48.778;2.308;2023-04-26T01:39:04;100967.78;;;17.56;29.37
62237;BME280;69163;48.778;2.308;2023-04-26T01:41:30;100969.23;;;17.56;29.37
62237;BME280;69163;48.778;2.308;2023-04-26T01:43:56;100970.07;;;17.64;29.28
62237;BME280;69163;48.778;2.308;2023-04-26T01:46:22;100963.51;;;18.05;29.33
62237;BME280;69163;48.778;2.308;2023-04-26T01:48:46;100964.68;;;17.58;29.32
62237;BME280;69163;48.778;2.308;2023-04-26T01:51:11;100967.17;;;17.57;29.33
62237;BME280;69163;48.778;2.308;2023-04-26T01:53:37;100969.75;;;17.33;29.30
62237;BME280;69163;48.778;2.308;2023-04-26T01:56:02;100974.46;;;17.54;29.31
62237;BME280;69163;48.778;2.308;2023-04-26T01:58:28;100974.60;;;17.79;29.30
62237;BME280;69163;48.778;2.308;2023-04-26T02:00:53;100967.78;;;17.62;29.23
62237;BME280;69163;48.778;2.308;2023-04-26T02:03:18;100968.95;;;17.57;29.26
62237;BME280;69163;48.778;2.308;2023-04-26T02:05:44;100961.87;;;17.78;29.27
62237;BME280;69163;48.778;2.308;2023-04-26T02:08:09;100957.17;;;17.54;29.27
62237;BME280;69163;48.778;2.308;2023-04-26T02:10:34;100952.27;;;17.54;29.28
62237;BME280;69163;48.778;2.308;2023-04-26T02:12:59;100951.73;;;17.57;29.23
62237;BME280;69163;48.778;2.308;2023-04-26T02:15:25;100955.63;;;17.54;29.26
62237;BME280;69163;48.778;2.308;2023-04-26T02:17:50;100956.51;;;17.30;29.25
62237;BME280;69163;48.778;2.308;2023-04-26T02:20:16;100959.99;;;17.75;29.31
62237;BME280;69163;48.778;2.308;2023-04-26T02:22:41;100963.83;;;17.54;29.22
62237;BME280;69163;48.778;2.308;2023-04-26T02:25:07;100964.94;;;18.08;29.16
62237;BME280;69163;48.778;2.308;2023-04-26T02:27:32;100967.01;;;17.82;29.17
62237;BME280;69163;48.778;2.308;2023-04-26T02:29:56;100965.48;;;17.60;29.13
62237;BME280;69163;48.778;2.308;2023-04-26T02:32:22;100963.34;;;17.61;29.11
62237;BME280;69163;48.778;2.308;2023-04-26T02:34:47;100966.93;;;17.60;29.14
62237;BME280;69163;48.778;2.308;2023-04-26T02:37:12;100964.28;;;17.56;29.16
62237;BME280;69163;48.778;2.308;2023-04-26T02:39:38;100959.52;;;17.53;29.18
62237;BME280;69163;48.778;2.308;2023-04-26T02:42:04;100958.00;;;17.54;29.15
62237;BME280;69163;48.778;2.308;2023-04-26T02:44:29;100952.07;;;17.51;29.16
62237;BME280;69163;48.778;2.308;2023-04-26T02:46:54;100952.84;;;17.28;29.15
62237;BME280;69163;48.778;2.308;2023-04-26T02:49:19;100955.35;;;17.77;29.12
62237;BME280;69163;48.778;2.308;2023-04-26T02:51:44;100953.90;;;17.53;29.11
62237;BME280;69163;48.778;2.308;2023-04-26T02:54:09;100951.93;;;17.50;29.14
62237;BME280;69163;48.778;2.308;2023-04-26T02:56:35;100948.87;;;17.46;29.18
62237;BME280;69163;48.778;2.308;2023-04-26T02:59:00;100952.06;;;17.49;29.17
62237;BME280;69163;48.778;2.308;2023-04-26T03:01:25;100954.61;;;17.47;29.18
62237;BME280;69163;48.778;2.308;2023-04-26T03:03:51;100953.37;;;17.41;29.18
62237;BME280;69163;48.778;2.308;2023-04-26T03:06:16;100952.20;;;17.47;29.13
62237;BME280;69163;48.778;2.308;2023-04-26T03:08:42;100951.92;;;17.42;29.17
62237;BME280;69163;48.778;2.308;2023-04-26T03:11:07;100954.36;;;17.73;29.11
62237;BME280;69163;48.778;2.308;2023-04-26T03:13:32;100952.88;;;17.44;29.14
62237;BME280;69163;48.778;2.308;2023-04-26T03:15:57;100946.75;;;17.47;29.11
62237;BME280;69163;48.778;2.308;2023-04-26T03:18:22;100938.37;;;17.47;29.10
62237;BME280;69163;48.778;2.308;2023-04-26T03:20:47;100938.02;;;16.99;29.09
62237;BME280;69163;48.778;2.308;2023-04-26T03:23:13;100935.18;;;17.20;29.10
62237;BME280;69163;48.778;2.308;2023-04-26T03:25:38;100941.87;;;17.50;29.04
62237;BME280;69163;48.778;2.308;2023-04-26T03:28:04;100940.27;;;18.00;29.02
62237;BME280;69163;48.778;2.308;2023-04-26T03:30:29;100937.63;;;17.52;29.03
62237;BME280;69163;48.778;2.308;2023-04-26T03:32:54;100934.84;;;17.50;29.03
62237;BME280;69163;48.778;2.308;2023-04-26T03:35:19;100939.83;;;17.46;29.06
62237;BME280;69163;48.778;2.308;2023-04-26T03:37:44;100945.04;;;17.50;29.01
62237;BME280;69163;48.778;2.308;2023-04-26T03:40:10;100942.19;;;17.49;29.02
62237;BME280;69163;48.778;2.308;2023-04-26T03:42:36;100941.08;;;17.52;28.98
62237;BME280;69163;48.778;2.308;2023-04-26T03:45:00;100939.22;;;17.48;29.01
62237;BME280;69163;48.778;2.308;2023-04-26T03:47:26;100936.32;;;17.56;28.95
62237;BME280;69163;48.778;2.308;2023-04-26T03:49:51;100934.48;;;17.58;28.89
62237;BME280;69163;48.778;2.308;2023-04-26T03:52:16;100935.12;;;17.97;28.96
62237;BME280;69163;48.778;2.308;2023-04-26T03:54:41;100936.22;;;17.46;28.99
62237;BME280;69163;48.778;2.308;2023-04-26T03:57:06;100935.95;;;17.25;28.97
62237;BME280;69163;48.778;2.308;2023-04-26T03:59:32;100930.20;;;17.18;29.01
62237;BME280;69163;48.778;2.308;2023-04-26T04:01:57;100925.06;;;17.41;29.02
62237;BME280;69163;48.778;2.308;2023-04-26T04:04:22;100922.22;;;17.38;29.04
62237;BME280;69163;48.778;2.308;2023-04-26T04:06:47;100926.95;;;17.68;28.99
62237;BME280;69163;48.778;2.308;2023-04-26T04:09:13;100925.32;;;17.89;29.00
62237;BME280;69163;48.778;2.308;2023-04-26T04:11:37;100930.41;;;17.45;28.96
62237;BME280;69163;48.778;2.308;2023-04-26T04:14:03;100931.27;;;17.45;28.94
62237;BME280;69163;48.778;2.308;2023-04-26T04:16:28;100936.53;;;17.48;28.92
62237;BME280;69163;48.778;2.308;2023-04-26T04:18:54;100937.15;;;17.47;28.92
62237;BME280;69163;48.778;2.308;2023-04-26T04:21:19;100934.32;;;17.49;28.90
62237;BME280;69163;48.778;2.308;2023-04-26T04:23:45;100933.76;;;17.45;28.92
62237;BME280;69163;48.778;2.308;2023-04-26T04:26:09;100933.41;;;17.49;28.87
62237;BME280;69163;48.778;2.308;2023-04-26T04:28:34;100928.52;;;17.47;28.88
62237;BME280;69163;48.778;2.308;2023-04-26T04:30:59;100931.55;;;17.73;28.88
62237;BME280;69163;48.778;2.308;2023-04-26T04:33:25;100933.29;;;17.71;28.86
62237;BME280;69163;48.778;2.308;2023-04-26T04:35:51;100930.54;;;17.68;28.88
62237;BME280;69163;48.778;2.308;2023-04-26T04:38:15;100933.90;;;17.91;28.89
62237;BME280;69163;48.778;2.308;2023-04-26T04:40:40;100937.08;;;17.47;28.85
62237;BME280;69163;48.778;2.308;2023-04-26T04:43:06;100938.21;;;17.44;28.87
62237;BME280;69163;48.778;2.308;2023-04-26T04:45:31;100934.79;;;17.43;28.87
62237;BME280;69163;48.778;2.308;2023-04-26T04:47:57;100934.81;;;17.32;28.96
62237;BME280;69163;48.778;2.308;2023-04-26T04:50:22;100931.56;;;17.34;28.93
62237;BME280;69163;48.778;2.308;2023-04-26T04:52:47;100929.23;;;17.85;28.89
62237;BME280;69163;48.778;2.308;2023-04-26T04:55:12;100930.90;;;17.33;28.92
62237;BME280;69163;48.778;2.308;2023-04-26T04:57:37;100933.43;;;17.40;28.86
62237;BME280;69163;48.778;2.308;2023-04-26T05:00:04;100935.95;;;17.49;28.78
62237;BME280;69163;48.778;2.308;2023-04-26T05:02:29;100936.66;;;17.48;28.79
62237;BME280;69163;48.778;2.308;2023-04-26T05:04:54;100942.93;;;17.23;28.76
62237;BME280;69163;48.778;2.308;2023-04-26T05:07:19;100940.67;;;17.47;28.76
62237;BME280;69163;48.778;2.308;2023-04-26T05:09:44;100935.42;;;17.48;28.75
62237;BME280;69163;48.778;2.308;2023-04-26T05:12:09;100933.26;;;17.46;28.73
62237;BME280;69163;48.778;2.308;2023-04-26T05:14:35;100926.04;;;17.41;28.78
62237;BME280;69163;48.778;2.308;2023-04-26T05:17:00;100925.51;;;17.08;28.86
62237;BME280;69163;48.778;2.308;2023-04-26T05:19:25;100932.08;;;17.43;28.76
62237;BME280;69163;48.778;2.308;2023-04-26T05:21:51;100941.62;;;17.44;28.73
62237;BME280;69163;48.778;2.308;2023-04-26T05:24:16;100943.66;;;17.45;28.72
62237;BME280;69163;48.778;2.308;2023-04-26T05:26:41;100939.21;;;17.46;28.72
62237;BME280;69163;48.778;2.308;2023-04-26T05:29:07;100938.32;;;17.43;28.72
62237;BME280;69163;48.778;2.308;2023-04-26T05:31:32;100947.81;;;17.94;28.68
62237;BME280;69163;48.778;2.308;2023-04-26T05:33:56;100949.64;;;17.17;28.72
62237;BME280;69163;48.778;2.308;2023-04-26T05:36:22;100952.99;;;17.43;28.72
62237;BME280;69163;48.778;2.308;2023-04-26T05:38:47;100949.87;;;17.18;28.72
62237;BME280;69163;48.778;2.308;2023-04-26T05:41:13;100949.78;;;17.47;28.67
62237;BME280;69163;48.778;2.308;2023-04-26T05:43:38;100947.97;;;17.37;28.76
62237;BME280;69163;48.778;2.308;2023-04-26T05:46:03;100948.01;;;17.42;28.69
62237;BME280;69163;48.778;2.308;2023-04-26T05:48:29;100952.06;;;17.41;28.71
62237;BME280;69163;48.778;2.308;2023-04-26T05:50:53;100953.30;;;17.15;28.72
62237;BME280;69163;48.778;2.308;2023-04-26T05:53:19;100949.28;;;17.39;28.72
62237;BME280;69163;48.778;2.308;2023-04-26T05:55:44;100951.20;;;17.36;28.76
62237;BME280;69163;48.778;2.308;2023-04-26T05:58:10;100951.82;;;17.32;28.79
62237;BME280;69163;48.778;2.308;2023-04-26T06:00:36;100952.56;;;17.41;28.72
62237;BME280;69163;48.778;2.308;2023-04-26T06:03:00;100950.60;;;17.85;28.72
62237;BME280;69163;48.778;2.308;2023-04-26T06:05:25;100953.63;;;17.60;28.74
62237;BME280;69163;48.778;2.308;2023-04-26T06:07:50;100956.54;;;17.39;28.71
62237;BME280;69163;48.778;2.308;2023-04-26T06:10:16;100957.91;;;17.36;28.71
62237;BME280;69163;48.778;2.308;2023-04-26T06:12:41;100963.67;;;17.29;28.78
62237;BME280;69163;48.778;2.308;2023-04-26T06:15:07;100965.10;;;17.39;28.71
62237;BME280;69163;48.778;2.308;2023-04-26T06:17:32;100971.43;;;17.28;28.78
62237;BME280;69163;48.778;2.308;2023-04-26T06:19:57;100971.64;;;17.76;28.78
62237;BME280;69163;48.778;2.308;2023-04-26T06:22:22;100968.63;;;17.29;28.78
62237;BME280;69163;48.778;2.308;2023-04-26T06:24:47;100968.07;;;17.30;28.76
62237;BME280;69163;48.778;2.308;2023-04-26T06:27:12;100959.60;;;17.32;28.74
62237;BME280;69163;48.778;2.308;2023-04-26T06:29:38;100957.36;;;17.32;28.74
62237;BME280;69163;48.778;2.308;2023-04-26T06:32:03;100952.34;;;17.20;28.78
62237;BME280;69163;48.778;2.308;2023-04-26T06:34:29;100952.48;;;17.16;28.63
62237;BME280;69163;48.778;2.308;2023-04-26T06:36:53;100950.27;;;17.40;28.61
62237;BME280;69163;48.778;2.308;2023-04-26T06:39:19;100950.40;;;17.39;28.62
62237;BME280;69163;48.778;2.308;2023-04-26T06:41:44;100952.43;;;17.40;28.60
62237;BME280;69163;48.778;2.308;2023-04-26T06:44:09;100954.50;;;17.66;28.59
62237;BME280;69163;48.778;2.308;2023-04-26T06:46:35;100955.11;;;17.65;28.59
62237;BME280;69163;48.778;2.308;2023-04-26T06:49:00;100961.07;;;17.30;28.65
62237;BME280;69163;48.778;2.308;2023-04-26T06:51:25;100960.05;;;17.35;28.62
62237;BME280;69163;48.778;2.308;2023-04-26T06:53:50;100966.02;;;17.38;28.60
62237;BME280;69163;48.778;2.308;2023-04-26T06:56:16;100966.87;;;17.30;28.64
62237;BME280;69163;48.778;2.308;2023-04-26T07:01:06;100959.84;;;17.25;28.68
62237;BME280;69163;48.778;2.308;2023-04-26T07:03:32;100960.59;;;17.82;28.64
62237;BME280;69163;48.778;2.308;2023-04-26T07:05:56;100963.22;;;17.36;28.60
62237;BME280;69163;48.778;2.308;2023-04-26T07:08:22;100962.83;;;17.32;28.61
62237;BME280;69163;48.778;2.308;2023-04-26T07:10:47;100962.49;;;17.32;28.63
62237;BME280;69163;48.778;2.308;2023-04-26T07:13:13;100963.42;;;17.36;28.59
62237;BME280;69163;48.778;2.308;2023-04-26T07:15:38;100968.78;;;17.30;28.64
62237;BME280;69163;48.778;2.308;2023-04-26T07:18:03;100970.65;;;17.81;28.64
62237;BME280;69163;48.778;2.308;2023-04-26T07:20:28;100970.52;;;17.36;28.60
62237;BME280;69163;48.778;2.308;2023-04-26T07:22:53;100965.33;;;17.39;28.57
62237;BME280;69163;48.778;2.308;2023-04-26T07:25:18;100964.63;;;17.33;28.60
62237;BME280;69163;48.778;2.308;2023-04-26T07:27:44;100967.08;;;17.34;28.61
62237;BME280;69163;48.778;2.308;2023-04-26T07:30:10;100965.43;;;17.35;28.59
62237;BME280;69163;48.778;2.308;2023-04-26T07:32:35;100968.69;;;17.53;28.63
62237;BME280;69163;48.778;2.308;2023-04-26T07:35:00;100970.98;;;17.33;28.61
62237;BME280;69163;48.778;2.308;2023-04-26T07:37:24;100970.06;;;17.80;28.61
62237;BME280;69163;48.778;2.308;2023-04-26T07:39:50;100965.25;;;17.28;28.66
62237;BME280;69163;48.778;2.308;2023-04-26T07:42:15;100959.98;;;17.30;28.64
62237;BME280;69163;48.778;2.308;2023-04-26T07:44:41;100958.16;;;17.33;28.59
62237;BME280;69163;48.778;2.308;2023-04-26T07:47:11;100955.19;;;17.31;28.62
62237;BME280;69163;48.778;2.308;2023-04-26T07:49:31;100951.20;;;17.43;28.68
62237;BME280;69163;48.778;2.308;2023-04-26T07:51:56;100950.45;;;17.85;28.56
62237;BME280;69163;48.778;2.308;2023-04-26T07:54:21;100945.55;;;17.25;28.66
62237;BME280;69163;48.778;2.308;2023-04-26T07:56:46;100945.61;;;17.33;28.61
62237;BME280;69163;48.778;2.308;2023-04-26T07:59:12;100945.19;;;17.32;28.62
62237;BME280;69163;48.778;2.308;2023-04-26T08:01:37;100945.94;;;17.10;28.62
62237;BME280;69163;48.778;2.308;2023-04-26T08:04:03;100942.39;;;17.29;28.63
62237;BME280;69163;48.778;2.308;2023-04-26T08:06:28;100944.56;;;17.28;28.67
62237;BME280;69163;48.778;2.308;2023-04-26T08:08:53;100947.93;;;17.75;28.64
62237;BME280;69163;48.778;2.308;2023-04-26T08:11:19;100948.53;;;17.83;28.59
62237;BME280;69163;48.778;2.308;2023-04-26T08:13:44;100949.87;;;17.36;28.59
62237;BME280;69163;48.778;2.308;2023-04-26T08:16:09;100950.84;;;17.59;28.59
62237;BME280;69163;48.778;2.308;2023-04-26T08:18:34;100951.56;;;17.45;28.52
62237;BME280;69163;48.778;2.308;2023-04-26T08:20:59;100948.34;;;17.34;28.59
62237;BME280;69163;48.778;2.308;2023-04-26T08:23:25;100944.36;;;17.34;28.59
62237;BME280;69163;48.778;2.308;2023-04-26T08:25:51;100942.11;;;17.36;28.59
62237;BME280;69163;48.778;2.308;2023-04-26T08:28:16;100941.36;;;17.45;28.50
62237;BME280;69163;48.778;2.308;2023-04-26T08:30:41;100939.31;;;17.45;28.49
62237;BME280;69163;48.778;2.308;2023-04-26T08:33:07;100935.84;;;17.90;28.50
62237;BME280;69163;48.778;2.308;2023-04-26T08:35:31;100933.64;;;17.38;28.57
62237;BME280;69163;48.778;2.308;2023-04-26T08:37:57;100935.31;;;17.46;28.47
62237;BME280;69163;48.778;2.308;2023-04-26T08:40:23;100933.57;;;17.67;28.53
62237;BME280;69163;48.778;2.308;2023-04-26T08:42:48;100930.71;;;17.38;28.56
62237;BME280;69163;48.778;2.308;2023-04-26T08:45:15;100929.38;;;17.41;28.54
62237;BME280;69163;48.778;2.308;2023-04-26T08:47:43;100928.25;;;17.61;28.56
62237;BME280;69163;48.778;2.308;2023-04-26T08:50:05;100928.44;;;17.37;28.58
62237;BME280;69163;48.778;2.308;2023-04-26T08:52:30;100928.82;;;17.37;28.60
62237;BME280;69163;48.778;2.308;2023-04-26T08:54:56;100928.57;;;17.38;28.59
62237;BME280;69163;48.778;2.308;2023-04-26T08:57:20;100930.04;;;17.45;28.54
62237;BME280;69163;48.778;2.308;2023-04-26T08:59:45;100929.49;;;17.72;28.50
62237;BME280;69163;48.778;2.308;2023-04-26T09:02:11;100926.85;;;17.83;28.59
62237;BME280;69163;48.778;2.308;2023-04-26T09:04:35;100928.99;;;17.32;28.63
62237;BME280;69163;48.778;2.308;2023-04-26T09:07:01;100928.34;;;17.41;28.56
62237;BME280;69163;48.778;2.308;2023-04-26T09:09:26;100929.06;;;17.40;28.57
62237;BME280;69163;48.778;2.308;2023-04-26T09:11:52;100925.67;;;17.41;28.56
62237;BME280;69163;48.778;2.308;2023-04-26T09:14:16;100928.43;;;17.48;28.48
62237;BME280;69163;48.778;2.308;2023-04-26T09:16:41;100925.59;;;18.01;28.46
62237;BME280;69163;48.778;2.308;2023-04-26T09:19:07;100923.72;;;17.24;28.50
62237;BME280;69163;48.778;2.308;2023-04-26T09:21:32;100923.26;;;17.91;28.55
62237;BME280;69163;48.778;2.308;2023-04-26T09:23:57;100918.98;;;17.69;28.53
62237;BME280;69163;48.778;2.308;2023-04-26T09:26:22;100918.71;;;17.49;28.52
62237;BME280;69163;48.778;2.308;2023-04-26T09:28:48;100918.54;;;17.49;28.52
62237;BME280;69163;48.778;2.308;2023-04-26T09:31:35;100917.78;;;17.52;28.50
62237;BME280;69163;48.778;2.308;2023-04-26T09:36:10;100917.54;;;17.57;28.67
62237;BME280;69163;48.778;2.308;2023-04-26T09:38:29;100919.51;;;17.62;28.63
62237;BME280;69163;48.778;2.308;2023-04-26T09:40:54;100922.71;;;17.41;28.61
62237;BME280;69163;48.778;2.308;2023-04-26T09:43:21;100925.70;;;17.94;28.57
62237;BME280;69163;48.778;2.308;2023-04-26T09:45:46;100922.53;;;17.38;28.62
62237;BME280;69163;48.778;2.308;2023-04-26T09:48:16;100922.77;;;17.40;28.62
62237;BME280;69163;48.778;2.308;2023-04-26T09:50:36;100917.19;;;17.34;28.67
62237;BME280;69163;48.778;2.308;2023-04-26T09:53:01;100913.27;;;17.56;28.70
62237;BME280;69163;48.778;2.308;2023-04-26T09:55:27;100905.25;;;17.89;28.64
62237;BME280;69163;48.778;2.308;2023-04-26T09:57:51;100899.58;;;17.68;28.61
62237;BME280;69163;48.778;2.308;2023-04-26T10:00:16;100900.02;;;17.65;28.61
62237;BME280;69163;48.778;2.308;2023-04-26T10:02:41;100903.97;;;17.49;28.54
62237;BME280;69163;48.778;2.308;2023-04-26T10:05:07;100904.78;;;17.40;28.63
62237;BME280;69163;48.778;2.308;2023-04-26T10:07:32;100898.72;;;17.69;28.60
62237;BME280;69163;48.778;2.308;2023-04-26T10:09:57;100894.31;;;17.36;28.66
62237;BME280;69163;48.778;2.308;2023-04-26T10:12:23;100894.43;;;17.33;28.71
62237;BME280;69163;48.778;2.308;2023-04-26T10:14:49;100898.97;;;17.85;28.62
62237;BME280;69163;48.778;2.308;2023-04-26T10:17:14;100897.92;;;17.92;28.58
62237;BME280;69163;48.778;2.308;2023-04-26T10:19:40;100898.71;;;17.59;28.69
62237;BME280;69163;48.778;2.308;2023-04-26T10:22:07;100896.71;;;17.37;28.66
62237;BME280;69163;48.778;2.308;2023-04-26T10:24:30;100892.78;;;17.63;28.63
62237;BME280;69163;48.778;2.308;2023-04-26T10:26:55;100891.19;;;17.44;28.61
62237;BME280;69163;48.778;2.308;2023-04-26T10:29:21;100887.71;;;17.69;28.57
62237;BME280;69163;48.778;2.308;2023-04-26T10:34:19;100882.69;;;17.28;28.77
62237;BME280;69163;48.778;2.308;2023-04-26T10:39:19;100884.41;;;17.58;28.73
62237;BME280;69163;48.778;2.308;2023-04-26T10:41:29;100878.69;;;17.39;28.68
62237;BME280;69163;48.778;2.308;2023-04-26T10:43:51;100878.58;;;17.42;28.65
62237;BME280;69163;48.778;2.308;2023-04-26T10:48:42;100881.10;;;17.50;28.56
62237;BME280;69163;48.778;2.308;2023-04-26T10:51:07;100884.49;;;17.50;28.55
62237;BME280;69163;48.778;2.308;2023-04-26T10:55:57;100882.94;;;17.45;28.62
62237;BME280;69163;48.778;2.308;2023-04-26T10:58:27;100879.07;;;17.46;28.61
62237;BME280;69163;48.778;2.308;2023-04-26T11:03:13;100876.19;;;17.47;28.58
62237;BME280;69163;48.778;2.308;2023-04-26T11:05:50;100876.36;;;17.46;28.60
62237;BME280;69163;48.778;2.308;2023-04-26T11:08:06;100876.79;;;18.00;28.55
62237;BME280;69163;48.778;2.308;2023-04-26T11:10:29;100874.69;;;17.38;28.65
62237;BME280;69163;48.778;2.308;2023-04-26T11:13:00;100872.87;;;17.40;28.64
62237;BME280;69163;48.778;2.308;2023-04-26T11:15:21;100873.06;;;17.48;28.58
62237;BME280;69163;48.778;2.308;2023-04-26T11:17:45;100875.30;;;17.41;28.65
62237;BME280;69163;48.778;2.308;2023-04-26T11:20:15;100872.81;;;17.74;28.58
62237;BME280;69163;48.778;2.308;2023-04-26T11:22:39;100869.18;;;17.44;28.61
62237;BME280;69163;48.778;2.308;2023-04-26T11:25:00;100867.29;;;17.94;28.58
62237;BME280;69163;48.778;2.308;2023-04-26T11:27:27;100863.69;;;17.85;28.67
62237;BME280;69163;48.778;2.308;2023-04-26T11:29:53;100863.05;;;17.61;28.66
62237;BME280;69163;48.778;2.308;2023-04-26T11:32:16;100861.20;;;17.49;28.57
62237;BME280;69163;48.778;2.308;2023-04-26T11:34:42;100858.86;;;17.72;28.59
62237;BME280;69163;48.778;2.308;2023-04-26T11:37:07;100852.99;;;17.64;28.68
62237;BME280;69163;48.778;2.308;2023-04-26T11:39:32;100856.88;;;17.89;28.67
62237;BME280;69163;48.778;2.308;2023-04-26T11:42:05;100859.70;;;17.46;28.61
62237;BME280;69163;48.778;2.308;2023-04-26T11:44:22;100857.26;;;17.47;28.61
62237;BME280;69163;48.778;2.308;2023-04-26T11:46:49;100855.79;;;17.47;28.62
62237;BME280;69163;48.778;2.308;2023-04-26T11:49:14;100850.18;;;17.46;28.62
62237;BME280;69163;48.778;2.308;2023-04-26T11:51:39;100855.33;;;17.45;28.62
62237;BME280;69163;48.778;2.308;2023-04-26T11:54:04;100853.69;;;17.91;28.64
62237;BME280;69163;48.778;2.308;2023-04-26T11:56:29;100845.58;;;17.68;28.59
62237;BME280;69163;48.778;2.308;2023-04-26T11:58:55;100843.01;;;17.43;28.63
62237;BME280;69163;48.778;2.308;2023-04-26T12:01:21;100839.98;;;17.41;28.65
62237;BME280;69163;48.778;2.308;2023-04-26T12:03:49;100840.24;;;17.61;28.70
62237;BME280;69163;48.778;2.308;2023-04-26T12:06:11;100841.09;;;17.88;28.66
62237;BME280;69163;48.778;2.308;2023-04-26T12:08:36;100837.60;;;17.82;28.71
62237;BME280;69163;48.778;2.308;2023-04-26T12:11:02;100829.24;;;17.32;28.75
62237;BME280;69163;48.778;2.308;2023-04-26T12:13:27;100834.99;;;17.40;28.69
62237;BME280;69163;48.778;2.308;2023-04-26T12:15:52;100835.16;;;17.47;28.63
62237;BME280;69163;48.778;2.308;2023-04-26T12:18:18;100835.18;;;17.49;28.61
62237;BME280;69163;48.778;2.308;2023-04-26T12:20:43;100835.54;;;17.45;28.65
62237;BME280;69163;48.778;2.308;2023-04-26T12:23:09;100836.07;;;17.46;28.65
62237;BME280;69163;48.778;2.308;2023-04-26T12:25:34;100836.94;;;17.96;28.63
62237;BME280;69163;48.778;2.308;2023-04-26T12:27:58;100832.12;;;17.27;28.58
62237;BME280;69163;48.778;2.308;2023-04-26T12:30:24;100835.81;;;17.74;28.58
62237;BME280;69163;48.778;2.308;2023-04-26T12:32:49;100835.26;;;17.50;28.60
62237;BME280;69163;48.778;2.308;2023-04-26T12:35:14;100832.32;;;17.71;28.59
62237;BME280;69163;48.778;2.308;2023-04-26T12:37:39;100836.09;;;17.68;28.64
62237;BME280;69163;48.778;2.308;2023-04-26T12:40:06;100834.93;;;17.65;28.65
62237;BME280;69163;48.778;2.308;2023-04-26T12:42:30;100834.94;;;17.96;28.60
62237;BME280;69163;48.778;2.308;2023-04-26T12:44:54;100837.03;;;17.95;28.61
62237;BME280;69163;48.778;2.308;2023-04-26T12:47:20;100837.45;;;17.42;28.64
62237;BME280;69163;48.778;2.308;2023-04-26T12:49:46;100841.38;;;17.45;28.63
62237;BME280;69163;48.778;2.308;2023-04-26T12:52:11;100846.16;;;17.46;28.64
62237;BME280;69163;48.778;2.308;2023-04-26T12:54:36;100843.13;;;17.52;28.57
62237;BME280;69163;48.778;2.308;2023-04-26T12:57:01;100844.20;;;17.76;28.54